createdAt,value
2018-06-05T00:00:07.794Z,18.80
2018-06-05T00:01:07.781Z,17.40
2018-06-05T00:02:07.768Z,18.00
2018-06-05T00:03:07.756Z,18.90
2018-06-05T00:04:07.742Z,18.70
2018-06-05T00:05:07.727Z,19.10
2018-06-05T00:06:07.724Z,19.20
2018-06-05T00:07:07.701Z,19.90
2018-06-05T00:08:07.687Z,18.70
2018-06-05T00:09:07.674Z,18.70
2018-06-05T00:10:07.662Z,20.30
2018-06-05T00:11:07.650Z,19.00
2018-06-05T00:12:07.637Z,19.50
2018-06-05T00:13:07.621Z,18.60
2018-06-05T00:14:07.610Z,20.10
2018-06-05T00:15:07.594Z,19.50
2018-06-05T00:16:07.581Z,19.90
2018-06-05T00:17:07.567Z,19.70
2018-06-05T00:18:07.555Z,21.70
2018-06-05T00:19:07.541Z,21.10
2018-06-05T00:20:07.528Z,21.40
2018-06-05T00:21:07.515Z,21.10
2018-06-05T00:22:07.502Z,21.70
2018-06-05T00:23:07.493Z,21.70
2018-06-05T00:24:07.476Z,22.90
2018-06-05T00:25:07.460Z,22.20
2018-06-05T00:26:07.447Z,22.50
2018-06-05T00:27:07.437Z,23.40
2018-06-05T00:28:07.423Z,22.90
2018-06-05T00:29:07.409Z,22.40
2018-06-05T00:30:07.396Z,22.50
2018-06-05T00:31:07.384Z,23.80
2018-06-05T00:32:07.368Z,22.80
2018-06-05T00:33:07.353Z,23.30
2018-06-05T00:34:07.342Z,23.10
2018-06-05T00:35:07.328Z,24.30
2018-06-05T00:36:07.316Z,22.70
2018-06-05T00:37:07.301Z,22.30
2018-06-05T00:38:07.288Z,22.80
2018-06-05T00:39:07.284Z,23.70
2018-06-05T00:40:07.263Z,22.80
2018-06-05T00:41:07.248Z,22.00
2018-06-05T00:42:07.234Z,23.40
2018-06-05T00:43:07.222Z,22.90
2018-06-05T00:44:07.210Z,22.20
2018-06-05T00:45:07.192Z,23.70
2018-06-05T00:46:07.180Z,23.30
2018-06-05T00:47:07.168Z,22.10
2018-06-05T00:48:07.153Z,22.50
2018-06-05T00:49:07.144Z,22.60
2018-06-05T00:50:07.126Z,22.60
2018-06-05T00:51:07.116Z,22.90
2018-06-05T00:52:07.101Z,21.60
2018-06-05T00:53:07.085Z,22.40
2018-06-05T00:54:07.071Z,21.80
2018-06-05T00:55:07.059Z,21.50
2018-06-05T00:56:07.046Z,23.00
2018-06-05T00:57:07.030Z,22.00
2018-06-05T00:58:07.021Z,22.40
2018-06-05T00:59:07.004Z,23.50
2018-06-05T01:00:06.993Z,22.80
2018-06-05T01:01:06.977Z,22.10
2018-06-05T01:02:06.963Z,23.60
2018-06-05T01:03:06.949Z,22.90
2018-06-05T01:04:06.938Z,23.10
2018-06-05T01:05:06.923Z,22.90
2018-06-05T01:06:06.910Z,22.40
2018-06-05T01:07:06.894Z,21.80
2018-06-05T01:08:06.884Z,23.20
2018-06-05T01:09:06.868Z,23.60
2018-06-05T01:10:06.856Z,21.90
2018-06-05T01:11:06.849Z,22.10
2018-06-05T01:12:06.832Z,21.70
2018-06-05T01:13:06.813Z,22.10
2018-06-05T01:14:06.801Z,22.00
2018-06-05T01:15:06.788Z,22.60
2018-06-05T01:16:06.776Z,22.80
2018-06-05T01:17:06.759Z,22.50
2018-06-05T01:18:06.746Z,21.60
2018-06-05T01:19:06.741Z,22.10
2018-06-05T01:20:06.721Z,22.70
2018-06-05T01:21:06.705Z,22.40
2018-06-05T01:22:06.693Z,22.40
2018-06-05T01:23:06.679Z,22.00
2018-06-05T01:24:06.667Z,22.40
2018-06-05T01:25:06.652Z,23.10
2018-06-05T01:26:06.637Z,22.50
2018-06-05T01:27:06.625Z,23.50
2018-06-05T01:28:06.611Z,22.80
2018-06-05T01:29:06.595Z,23.40
2018-06-05T01:30:06.584Z,23.20
2018-06-05T01:31:06.571Z,22.60
2018-06-05T01:32:06.558Z,23.00
2018-06-05T01:33:06.543Z,23.70
2018-06-05T01:34:06.529Z,22.50
2018-06-05T01:35:06.516Z,21.90
2018-06-05T01:36:06.503Z,22.40
2018-06-05T01:37:06.489Z,22.50
2018-06-05T01:38:06.474Z,22.30
2018-06-05T01:39:06.463Z,22.70
2018-06-05T01:40:06.448Z,23.50
2018-06-05T01:41:06.436Z,23.50
2018-06-05T01:42:06.421Z,23.50
2018-06-05T01:43:06.405Z,23.10
2018-06-05T01:44:06.393Z,23.20
2018-06-05T01:45:06.379Z,23.80
2018-06-05T01:46:06.366Z,23.80
2018-06-05T01:47:06.352Z,23.50
2018-06-05T01:48:06.340Z,22.70
2018-06-05T01:49:06.325Z,24.40
2018-06-05T01:50:06.322Z,24.20
2018-06-05T01:51:06.297Z,22.70
2018-06-05T01:52:06.289Z,22.90
2018-06-05T01:53:06.271Z,23.60
2018-06-05T01:54:06.270Z,23.00
2018-06-05T01:55:06.243Z,21.90
2018-06-05T01:56:06.230Z,22.90
2018-06-05T01:57:06.217Z,24.80
2018-06-05T01:58:06.201Z,23.60
2018-06-05T01:59:06.192Z,23.70
2018-06-05T02:00:06.179Z,23.10
2018-06-05T02:01:06.161Z,23.00
2018-06-05T02:02:06.149Z,24.40
2018-06-05T02:03:06.138Z,23.20
2018-06-05T02:04:06.123Z,23.90
2018-06-05T02:05:06.112Z,22.80
2018-06-05T02:06:06.095Z,23.10
2018-06-05T02:07:06.085Z,24.40
2018-06-05T02:08:06.067Z,23.20
2018-06-05T02:09:06.054Z,23.00
2018-06-05T02:10:06.038Z,23.90
2018-06-05T02:11:06.026Z,24.00
2018-06-05T02:12:06.017Z,25.20
2018-06-05T02:13:06.001Z,24.10
2018-06-05T02:14:05.984Z,23.70
2018-06-05T02:15:05.974Z,21.30
2018-06-05T02:16:05.959Z,23.60
2018-06-05T02:17:05.944Z,24.50
2018-06-05T02:18:05.931Z,23.80
2018-06-05T02:19:05.921Z,22.80
2018-06-05T02:20:05.908Z,23.70
2018-06-05T02:21:05.893Z,23.50
2018-06-05T02:22:05.877Z,24.10
2018-06-05T02:23:05.865Z,23.50
2018-06-05T02:24:05.851Z,23.90
2018-06-05T02:25:05.836Z,23.10
2018-06-05T02:26:05.824Z,24.30
2018-06-05T02:27:05.812Z,25.60
2018-06-05T02:28:05.796Z,23.40
2018-06-05T02:29:05.783Z,23.10
2018-06-05T02:30:05.783Z,23.10
2018-06-05T02:31:05.756Z,23.40
2018-06-05T02:32:05.742Z,24.10
2018-06-05T02:33:05.728Z,23.50
2018-06-05T02:34:05.718Z,24.30
2018-06-05T02:35:05.702Z,24.10
2018-06-05T02:36:05.688Z,22.70
2018-06-05T02:37:05.673Z,23.20
2018-06-05T02:38:05.665Z,23.00
2018-06-05T02:39:05.646Z,24.30
2018-06-05T02:40:05.634Z,24.20
2018-06-05T02:41:05.620Z,23.10
2018-06-05T02:42:05.606Z,23.80
2018-06-05T02:43:05.595Z,23.60
2018-06-05T02:44:05.582Z,23.80
2018-06-05T02:45:05.569Z,22.70
2018-06-05T02:46:05.561Z,24.10
2018-06-05T02:47:05.538Z,24.20
2018-06-05T02:48:05.525Z,24.30
2018-06-05T02:49:05.512Z,24.00
2018-06-05T02:50:05.501Z,24.00
2018-06-05T02:51:05.487Z,24.60
2018-06-05T02:52:05.470Z,23.90
2018-06-05T02:53:05.457Z,23.90
2018-06-05T02:54:05.443Z,23.30
2018-06-05T02:55:05.428Z,24.20
2018-06-05T02:56:05.424Z,24.30
2018-06-05T02:57:05.407Z,24.20
2018-06-05T02:58:05.390Z,23.80
2018-06-05T02:59:05.373Z,23.70
2018-06-05T03:00:05.366Z,23.10
2018-06-05T03:01:05.346Z,24.10
2018-06-05T03:02:05.334Z,22.80
2018-06-05T03:03:05.319Z,23.90
2018-06-05T03:04:05.308Z,22.60
2018-06-05T03:05:05.293Z,22.60
2018-06-05T03:06:05.280Z,27.10
2018-06-05T03:07:05.265Z,23.80
2018-06-05T03:08:05.254Z,23.40
2018-06-05T03:09:05.238Z,22.10
2018-06-05T03:10:05.233Z,22.60
2018-06-05T03:11:05.212Z,23.40
2018-06-05T03:12:05.196Z,22.40
2018-06-05T03:13:05.181Z,22.60
2018-06-05T03:14:05.171Z,23.50
2018-06-05T03:15:05.155Z,22.60
2018-06-05T03:16:05.141Z,21.90
2018-06-05T03:17:05.131Z,23.10
2018-06-05T03:18:05.123Z,21.70
2018-06-05T03:19:05.101Z,22.90
2018-06-05T03:20:05.092Z,22.90
2018-06-05T03:21:05.072Z,22.90
2018-06-05T03:22:05.064Z,22.20
2018-06-05T03:23:05.055Z,22.70
2018-06-05T03:24:05.033Z,22.60
2018-06-05T03:25:05.026Z,21.90
2018-06-05T03:26:05.009Z,21.60
2018-06-05T03:27:04.992Z,22.60
2018-06-05T03:28:04.978Z,22.00
2018-06-05T03:29:04.964Z,21.50
2018-06-05T03:30:04.950Z,21.60
2018-06-05T03:31:04.935Z,22.10
2018-06-05T03:32:04.927Z,21.00
2018-06-05T03:33:04.910Z,22.50
2018-06-05T03:34:04.933Z,22.00
2018-06-05T03:35:04.882Z,21.70
2018-06-05T03:36:04.869Z,21.40
2018-06-05T03:37:04.854Z,22.60
2018-06-05T03:38:04.841Z,21.30
2018-06-05T03:39:04.827Z,21.60
2018-06-05T03:40:04.814Z,20.50
2018-06-05T03:41:04.811Z,22.00
2018-06-05T03:42:04.785Z,21.70
2018-06-05T03:43:04.774Z,20.90
2018-06-05T03:44:04.760Z,20.90
2018-06-05T03:45:04.746Z,21.40
2018-06-05T03:46:04.731Z,20.10
2018-06-05T03:47:04.716Z,19.70
2018-06-05T03:48:04.704Z,20.50
2018-06-05T03:49:04.689Z,20.40
2018-06-05T03:50:04.676Z,19.90
2018-06-05T03:51:04.662Z,21.00
2018-06-05T03:52:04.649Z,19.90
2018-06-05T03:53:04.635Z,19.30
2018-06-05T03:54:04.621Z,20.10
2018-06-05T03:55:04.612Z,18.90
2018-06-05T03:56:04.597Z,19.40
2018-06-05T03:57:04.600Z,19.00
2018-06-05T03:58:04.566Z,19.10
2018-06-05T03:59:04.553Z,17.60
2018-06-05T04:00:04.539Z,20.00
2018-06-05T04:01:04.525Z,18.90
2018-06-05T04:02:04.510Z,18.70
2018-06-05T04:03:04.497Z,17.80
2018-06-05T04:04:04.484Z,17.90
2018-06-05T04:05:04.475Z,17.70
2018-06-05T04:06:04.459Z,17.90
2018-06-05T04:07:04.443Z,17.20
2018-06-05T04:08:04.431Z,17.90
2018-06-05T04:09:04.418Z,16.90
2018-06-05T04:10:04.405Z,17.40
2018-06-05T04:11:04.398Z,17.10
2018-06-05T04:12:04.378Z,17.00
2018-06-05T04:13:04.362Z,16.90
2018-06-05T04:14:04.355Z,16.20
2018-06-05T04:15:04.335Z,16.70
2018-06-05T04:16:04.322Z,16.90
2018-06-05T04:17:04.308Z,16.90
2018-06-05T04:18:04.295Z,16.70
2018-06-05T04:19:04.283Z,17.10
2018-06-05T04:20:04.266Z,17.70
2018-06-05T04:21:04.254Z,18.00
2018-06-05T04:22:04.243Z,17.60
2018-06-05T04:23:04.229Z,18.30
2018-06-05T04:24:04.213Z,18.30
2018-06-05T04:25:04.200Z,17.90
2018-06-05T04:26:04.186Z,16.90
2018-06-05T04:27:04.199Z,17.40
2018-06-05T04:28:04.159Z,17.10
2018-06-05T04:29:04.149Z,17.60
2018-06-05T04:30:04.132Z,17.40
2018-06-05T04:31:04.122Z,17.10
2018-06-05T04:32:04.107Z,17.10
2018-06-05T04:33:04.095Z,17.20
2018-06-05T04:34:04.078Z,18.00
2018-06-05T04:35:04.067Z,17.90
2018-06-05T04:36:04.053Z,18.50
2018-06-05T04:37:04.040Z,17.30
2018-06-05T04:38:04.024Z,17.40
2018-06-05T04:39:04.013Z,17.10
2018-06-05T04:40:04.004Z,17.30
2018-06-05T04:41:03.987Z,17.00
2018-06-05T04:42:03.972Z,16.80
2018-06-05T04:43:03.959Z,17.60
2018-06-05T04:44:03.945Z,17.50
2018-06-05T04:45:03.935Z,16.40
2018-06-05T04:46:03.915Z,17.90
2018-06-05T04:47:03.903Z,19.20
2018-06-05T04:48:03.890Z,18.20
2018-06-05T04:49:03.874Z,17.90
2018-06-05T04:50:03.865Z,18.40
2018-06-05T04:51:03.848Z,17.80
2018-06-05T04:52:03.836Z,19.30
2018-06-05T04:53:03.821Z,18.60
2018-06-05T04:54:03.811Z,18.40
2018-06-05T04:55:03.794Z,18.30
2018-06-05T04:56:03.782Z,18.90
2018-06-05T04:57:03.767Z,17.10
2018-06-05T04:58:03.755Z,18.40
2018-06-05T04:59:03.739Z,18.00
2018-06-05T05:00:03.726Z,18.00
2018-06-05T05:01:03.718Z,17.70
2018-06-05T05:02:03.699Z,18.00
2018-06-05T05:03:03.685Z,17.80
2018-06-05T05:04:03.672Z,19.20
2018-06-05T05:05:03.660Z,18.90
2018-06-05T05:06:03.645Z,18.10
2018-06-05T05:07:03.631Z,19.30
2018-06-05T05:08:03.621Z,18.10
2018-06-05T05:09:03.605Z,19.00
2018-06-05T05:10:03.593Z,18.70
2018-06-05T05:11:03.578Z,18.10
2018-06-05T05:12:03.565Z,18.30
2018-06-05T05:13:03.559Z,17.90
2018-06-05T05:14:03.536Z,17.50
2018-06-05T05:15:03.524Z,19.10
2018-06-05T05:16:03.508Z,18.50
2018-06-05T05:17:03.497Z,16.90
2018-06-05T05:18:03.490Z,17.60
2018-06-05T05:19:03.471Z,18.60
2018-06-05T05:20:03.456Z,18.20
2018-06-05T05:21:03.443Z,17.70
2018-06-05T05:22:03.430Z,18.10
2018-06-05T05:23:03.418Z,18.60
2018-06-05T05:24:03.404Z,16.80
2018-06-05T05:25:03.389Z,18.30
2018-06-05T05:26:03.375Z,17.60
2018-06-05T05:27:03.364Z,17.80
2018-06-05T05:28:03.351Z,17.00
2018-06-05T05:29:03.339Z,17.90
2018-06-05T05:30:03.322Z,16.90
2018-06-05T05:31:03.314Z,17.60
2018-06-05T05:32:03.295Z,16.60
2018-06-05T05:33:03.287Z,16.10
2018-06-05T05:34:03.271Z,16.50
2018-06-05T05:35:03.259Z,17.90
2018-06-05T05:36:03.246Z,17.70
2018-06-05T05:37:03.232Z,18.10
2018-06-05T05:38:03.215Z,18.20
2018-06-05T05:39:03.202Z,18.40
2018-06-05T05:40:03.190Z,18.60
2018-06-05T05:41:03.180Z,18.40
2018-06-05T05:42:03.165Z,17.90
2018-06-05T05:43:03.149Z,18.60
2018-06-05T05:44:03.136Z,18.00
2018-06-05T05:45:03.124Z,18.80
2018-06-05T05:46:03.111Z,18.10
2018-06-05T05:47:03.159Z,17.50
2018-06-05T05:48:03.082Z,19.50
2018-06-05T05:49:03.070Z,18.60
2018-06-05T05:50:03.058Z,18.20
2018-06-05T05:51:03.044Z,18.10
2018-06-05T05:52:03.036Z,19.20
2018-06-05T05:53:03.018Z,18.70
2018-06-05T05:54:03.002Z,18.40
2018-06-05T05:55:02.989Z,18.20
2018-06-05T05:56:02.979Z,18.50
2018-06-05T05:57:02.965Z,18.40
2018-06-05T05:58:02.949Z,18.30
2018-06-05T05:59:02.935Z,18.70
2018-06-05T06:00:02.926Z,18.30
2018-06-05T06:01:02.910Z,18.50
2018-06-05T06:02:02.901Z,17.90
2018-06-05T06:03:02.882Z,18.80
2018-06-05T06:04:02.872Z,17.70
2018-06-05T06:05:02.863Z,18.00
2018-06-05T06:06:02.844Z,18.00
2018-06-05T06:07:02.830Z,18.20
2018-06-05T06:08:02.819Z,17.60
2018-06-05T06:09:02.807Z,18.10
2018-06-05T06:10:02.788Z,17.80
2018-06-05T06:11:02.782Z,18.60
2018-06-05T06:12:02.768Z,18.10
2018-06-05T06:13:02.751Z,18.90
2018-06-05T06:14:02.750Z,17.70
2018-06-05T06:15:02.724Z,17.70
2018-06-05T06:16:02.709Z,17.70
2018-06-05T06:17:02.700Z,18.00
2018-06-05T06:18:02.683Z,18.30
2018-06-05T06:19:02.671Z,17.60
2018-06-05T06:20:02.661Z,18.90
2018-06-05T06:21:02.648Z,18.10
2018-06-05T06:22:02.632Z,17.90
2018-06-05T06:23:02.620Z,17.60
2018-06-05T06:24:02.607Z,18.00
2018-06-05T06:25:02.591Z,17.60
2018-06-05T06:26:02.597Z,17.40
2018-06-05T06:27:02.618Z,16.80
2018-06-05T06:28:02.554Z,16.40
2018-06-05T06:29:02.539Z,15.30
2018-06-05T06:30:02.531Z,14.90
2018-06-05T06:31:02.514Z,15.20
2018-06-05T06:32:02.502Z,15.70
2018-06-05T06:33:02.486Z,15.80
2018-06-05T06:34:02.474Z,15.20
2018-06-05T06:35:02.461Z,14.70
2018-06-05T06:36:02.449Z,16.30
2018-06-05T06:37:02.442Z,15.20
2018-06-05T06:38:02.423Z,15.60
2018-06-05T06:39:02.408Z,15.00
2018-06-05T06:40:02.397Z,16.00
2018-06-05T06:41:02.385Z,16.10
2018-06-05T06:42:02.369Z,16.50
2018-06-05T06:43:02.356Z,16.40
2018-06-05T06:44:02.344Z,17.90
2018-06-05T06:45:02.330Z,17.40
2018-06-05T06:46:02.320Z,16.60
2018-06-05T06:47:02.304Z,17.30
2018-06-05T06:48:02.293Z,17.70
2018-06-05T06:49:02.305Z,17.30
2018-06-05T06:50:02.266Z,17.10
2018-06-05T06:51:02.253Z,16.60
2018-06-05T06:52:02.238Z,16.60
2018-06-05T06:53:02.229Z,17.70
2018-06-05T06:54:02.215Z,17.20
2018-06-05T06:55:02.202Z,17.20
2018-06-05T06:56:02.190Z,16.00
2018-06-05T06:57:02.174Z,16.10
2018-06-05T06:58:02.166Z,16.60
2018-06-05T06:59:02.149Z,17.80
2018-06-05T07:00:02.138Z,18.10
2018-06-05T07:01:02.125Z,17.90
2018-06-05T07:02:02.111Z,16.90
2018-06-05T07:03:02.101Z,17.50
2018-06-05T07:04:02.087Z,17.80
2018-06-05T07:05:02.073Z,19.60
2018-06-05T07:06:02.060Z,18.30
2018-06-05T07:07:02.091Z,18.70
2018-06-05T07:08:02.034Z,18.50
2018-06-05T07:09:02.024Z,18.00
2018-06-05T07:10:02.012Z,18.00
2018-06-05T07:11:01.997Z,19.10
2018-06-05T07:12:01.984Z,17.60
2018-06-05T07:13:01.971Z,17.90
2018-06-05T07:14:01.959Z,19.60
2018-06-05T07:15:01.962Z,18.70
2018-06-05T07:16:01.932Z,18.60
2018-06-05T07:17:01.920Z,17.80
2018-06-05T07:18:01.907Z,17.90
2018-06-05T07:19:01.894Z,17.50
2018-06-05T07:20:01.882Z,17.20
2018-06-05T07:21:01.873Z,18.10
2018-06-05T07:22:01.857Z,19.20
2018-06-05T07:23:01.852Z,20.10
2018-06-05T07:24:01.837Z,19.30
2018-06-05T07:25:01.817Z,18.10
2018-06-05T07:26:01.804Z,16.90
2018-06-05T07:27:01.792Z,16.70
2018-06-05T07:28:01.783Z,17.60
2018-06-05T07:29:01.769Z,17.40
2018-06-05T07:30:01.755Z,17.70
2018-06-05T07:31:01.742Z,18.20
2018-06-05T07:32:01.729Z,17.00
2018-06-05T07:33:01.715Z,19.60
2018-06-05T07:34:01.731Z,18.60
2018-06-05T07:35:01.692Z,18.90
2018-06-05T07:36:01.678Z,18.70
2018-06-05T07:37:01.666Z,18.10
2018-06-05T07:38:01.653Z,17.70
2018-06-05T07:39:01.642Z,16.60
2018-06-05T07:40:01.631Z,16.80
2018-06-05T07:41:01.616Z,16.40
2018-06-05T07:42:01.605Z,15.70
2018-06-05T07:43:01.593Z,16.40
2018-06-05T07:44:01.575Z,17.00
2018-06-05T07:45:01.568Z,17.90
2018-06-05T07:46:01.554Z,16.60
2018-06-05T07:47:01.539Z,16.60
2018-06-05T07:48:01.531Z,17.30
2018-06-05T07:49:01.521Z,17.20
2018-06-05T07:50:01.538Z,17.80
2018-06-05T07:51:01.491Z,16.50
2018-06-05T07:52:01.478Z,16.60
2018-06-05T07:53:01.467Z,16.80
2018-06-05T07:54:01.453Z,19.10
2018-06-05T07:55:01.442Z,17.80
2018-06-05T07:56:01.432Z,19.00
2018-06-05T07:57:01.426Z,17.20
2018-06-05T07:58:01.404Z,17.10
2018-06-05T07:59:01.392Z,17.20
2018-06-05T08:00:01.384Z,16.00
2018-06-05T08:01:01.368Z,16.10
2018-06-05T08:02:01.365Z,19.20
2018-06-05T08:03:01.344Z,15.90
2018-06-05T08:04:01.331Z,16.20
2018-06-05T08:05:01.320Z,16.60
2018-06-05T08:06:01.306Z,15.80
2018-06-05T08:07:01.297Z,15.90
2018-06-05T08:08:01.285Z,16.10
2018-06-05T08:09:01.272Z,15.70
2018-06-05T08:10:01.262Z,15.80
2018-06-05T08:11:01.253Z,16.60
2018-06-05T08:12:01.236Z,15.90
2018-06-05T08:13:01.224Z,16.00
2018-06-05T08:14:01.218Z,15.60
2018-06-05T08:15:01.204Z,15.30
2018-06-05T08:16:01.193Z,15.70
2018-06-05T08:17:01.176Z,16.70
2018-06-05T08:18:01.168Z,16.60
2018-06-05T08:19:01.155Z,16.90
2018-06-05T08:20:01.149Z,16.70
2018-06-05T08:21:01.130Z,19.50
2018-06-05T08:22:01.119Z,16.40
2018-06-05T08:23:01.107Z,16.10
2018-06-05T08:24:01.095Z,15.50
2018-06-05T08:25:01.092Z,15.20
2018-06-05T08:26:01.076Z,15.20
2018-06-05T08:27:01.064Z,16.30
2018-06-05T08:28:01.062Z,16.80
2018-06-05T08:29:01.038Z,16.70
2018-06-05T08:30:01.027Z,17.10
2018-06-05T08:31:01.019Z,17.80
2018-06-05T08:32:01.008Z,15.80
2018-06-05T08:33:00.992Z,15.70
2018-06-05T08:34:00.981Z,16.00
2018-06-05T08:35:00.970Z,16.30
2018-06-05T08:36:00.959Z,16.10
2018-06-05T08:37:00.949Z,15.60
2018-06-05T08:38:01.004Z,15.80
2018-06-05T08:39:00.926Z,15.50
2018-06-05T08:40:00.916Z,16.10
2018-06-05T08:41:00.905Z,14.20
2018-06-05T08:42:00.894Z,14.90
2018-06-05T08:43:00.883Z,19.00
2018-06-05T08:44:00.872Z,19.10
2018-06-05T08:45:00.863Z,15.60
2018-06-05T08:46:00.850Z,19.40
2018-06-05T08:47:00.842Z,16.00
2018-06-05T08:48:00.828Z,15.20
2018-06-05T08:49:00.816Z,16.00
2018-06-05T08:50:00.806Z,15.50
2018-06-05T08:51:00.796Z,16.40
2018-06-05T08:52:00.787Z,16.90
2018-06-05T08:53:00.772Z,16.90
2018-06-05T08:54:00.763Z,17.70
2018-06-05T08:55:00.755Z,15.60
2018-06-05T08:56:00.745Z,15.70
2018-06-05T08:57:00.732Z,16.80
2018-06-05T08:58:00.725Z,16.10
2018-06-05T08:59:00.716Z,15.70
2018-06-05T09:00:00.708Z,15.70
2018-06-05T09:01:00.691Z,15.70
2018-06-05T09:02:00.678Z,16.20
2018-06-05T09:03:00.669Z,15.50
2018-06-05T09:04:00.658Z,15.20
2018-06-05T09:05:00.647Z,15.00
2018-06-05T09:06:00.635Z,16.10
2018-06-05T09:07:00.626Z,15.20
2018-06-05T09:08:00.612Z,16.20
2018-06-05T09:09:00.629Z,17.40
2018-06-05T09:10:00.594Z,15.90
2018-06-05T09:11:00.583Z,15.80
2018-06-05T09:12:00.572Z,15.30
2018-06-05T09:13:00.563Z,15.80
2018-06-05T09:14:00.552Z,15.60
2018-06-05T09:15:00.540Z,14.60
2018-06-05T09:16:00.531Z,14.50
2018-06-05T09:17:00.518Z,15.30
2018-06-05T09:18:00.508Z,15.80
2018-06-05T09:19:00.500Z,15.20
2018-06-05T09:20:00.492Z,19.60
2018-06-05T09:21:00.479Z,15.10
2018-06-05T09:22:00.467Z,15.80
2018-06-05T09:23:00.456Z,15.00
2018-06-05T09:24:00.448Z,16.00
2018-06-05T09:25:00.435Z,14.90
2018-06-05T09:26:00.426Z,14.40
2018-06-05T09:27:00.414Z,16.00
2018-06-05T09:28:00.404Z,14.90
2018-06-05T09:29:00.414Z,17.00
2018-06-05T09:30:00.381Z,15.80
2018-06-05T09:31:00.376Z,16.00
2018-06-05T09:32:00.363Z,14.70
2018-06-05T09:33:00.351Z,14.40
2018-06-05T09:34:00.340Z,15.80
2018-06-05T09:35:00.335Z,15.90
2018-06-05T09:36:00.320Z,14.50
2018-06-05T09:37:00.310Z,14.10
2018-06-05T09:38:00.298Z,15.30
2018-06-05T09:39:00.288Z,15.10
2018-06-05T09:40:00.282Z,18.60
2018-06-05T09:41:00.272Z,21.40
2018-06-05T09:42:00.262Z,15.80
2018-06-05T09:43:00.247Z,15.20
2018-06-05T09:44:00.239Z,16.10
2018-06-05T09:45:00.231Z,15.20
2018-06-05T09:46:00.219Z,15.20
2018-06-05T09:47:00.221Z,15.40
2018-06-05T09:48:00.198Z,15.00
2018-06-05T09:49:00.188Z,16.20
2018-06-05T09:50:00.176Z,16.10
2018-06-05T09:51:00.167Z,20.70
2018-06-05T09:52:00.186Z,16.00
2018-06-05T09:53:00.146Z,16.60
2018-06-05T09:54:00.137Z,16.40
2018-06-05T09:55:00.128Z,16.60
2018-06-05T09:56:00.142Z,16.30
2018-06-05T09:57:00.108Z,15.60
2018-06-05T09:58:00.276Z,17.80
2018-06-05T09:59:00.084Z,15.60
2018-06-05T10:00:00.076Z,16.40
2018-06-05T10:01:00.067Z,16.30
2018-06-05T10:02:00.056Z,15.10
2018-06-05T10:03:00.044Z,14.90
2018-06-05T10:04:00.035Z,14.70
2018-06-05T10:05:00.027Z,14.80
2018-06-05T10:06:00.024Z,14.60
2018-06-05T10:07:00.013Z,15.20
2018-06-05T10:07:59.995Z,17.10
2018-06-05T10:08:59.988Z,16.70
2018-06-05T10:09:59.998Z,14.50
2018-06-05T10:10:59.964Z,16.20
2018-06-05T10:11:59.954Z,15.20
2018-06-05T10:12:59.943Z,16.60
2018-06-05T10:13:59.935Z,16.30
2018-06-05T10:14:59.929Z,15.40
2018-06-05T10:15:59.913Z,15.20
2018-06-05T10:16:59.901Z,15.10
2018-06-05T10:17:59.900Z,16.10
2018-06-05T10:18:59.883Z,15.00
2018-06-05T10:19:59.872Z,15.90
2018-06-05T10:20:59.861Z,16.00
2018-06-05T10:21:59.852Z,15.30
2018-06-05T10:22:59.854Z,16.70
2018-06-05T10:23:59.832Z,13.70
2018-06-05T10:24:59.821Z,15.60
2018-06-05T10:25:59.820Z,14.90
2018-06-05T10:26:59.801Z,15.50
2018-06-05T10:27:59.794Z,15.00
2018-06-05T10:28:59.780Z,15.30
2018-06-05T10:29:59.769Z,16.00
2018-06-05T10:30:59.758Z,14.80
2018-06-05T10:31:59.752Z,16.30
2018-06-05T10:32:59.743Z,14.20
2018-06-05T10:33:59.734Z,15.30
2018-06-05T10:34:59.725Z,15.90
2018-06-05T10:35:59.709Z,14.90
2018-06-05T10:36:59.702Z,14.70
2018-06-05T10:37:59.687Z,14.70
2018-06-05T10:38:59.680Z,15.10
2018-06-05T10:39:59.671Z,14.20
2018-06-05T10:40:59.657Z,15.10
2018-06-05T10:41:59.649Z,16.70
2018-06-05T10:42:59.640Z,15.40
2018-06-05T10:43:59.628Z,15.70
2018-06-05T10:44:59.620Z,15.50
2018-06-05T10:45:59.607Z,15.70
2018-06-05T10:46:59.600Z,15.80
2018-06-05T10:47:59.592Z,16.10
2018-06-05T10:48:59.579Z,15.40
2018-06-05T10:49:59.569Z,15.40
2018-06-05T10:50:59.559Z,15.30
2018-06-05T10:51:59.548Z,16.40
2018-06-05T10:52:59.537Z,16.70
2018-06-05T10:53:59.530Z,15.70
2018-06-05T10:54:59.518Z,16.20
2018-06-05T10:55:59.510Z,17.10
2018-06-05T10:56:59.499Z,17.70
2018-06-05T10:57:59.491Z,15.50
2018-06-05T10:58:59.483Z,15.70
2018-06-05T10:59:59.470Z,16.50
2018-06-05T11:00:59.459Z,16.90
2018-06-05T11:01:59.448Z,19.90
2018-06-05T11:02:59.447Z,17.30
2018-06-05T11:03:59.429Z,16.90
2018-06-05T11:04:59.423Z,16.60
2018-06-05T11:05:59.409Z,16.60
2018-06-05T11:06:59.400Z,16.50
2018-06-05T11:07:59.387Z,16.80
2018-06-05T11:08:59.378Z,17.80
2018-06-05T11:09:59.368Z,18.30
2018-06-05T11:10:59.359Z,17.00
2018-06-05T11:11:59.351Z,17.40
2018-06-05T11:12:59.338Z,17.80
2018-06-05T11:13:59.328Z,17.50
2018-06-05T11:14:59.319Z,15.50
2018-06-05T11:15:59.309Z,16.00
2018-06-05T11:16:59.298Z,16.70
2018-06-05T11:17:59.289Z,15.80
2018-06-05T11:18:59.279Z,15.80
2018-06-05T11:19:59.270Z,14.80
2018-06-05T11:20:59.263Z,17.10
2018-06-05T11:21:59.250Z,19.50
2018-06-05T11:22:59.239Z,16.00
2018-06-05T11:23:59.232Z,15.10
2018-06-05T11:24:59.222Z,14.80
2018-06-05T11:25:59.212Z,15.00
2018-06-05T11:26:59.201Z,14.50
2018-06-05T11:27:59.192Z,14.10
2018-06-05T11:28:59.183Z,13.90
2018-06-05T11:29:59.193Z,14.00
2018-06-05T11:30:59.167Z,14.00
2018-06-05T11:31:59.158Z,13.10
2018-06-05T11:32:59.151Z,13.30
2018-06-05T11:33:59.143Z,15.50
2018-06-05T11:34:59.134Z,12.30
2018-06-05T11:35:59.129Z,14.80
2018-06-05T11:36:59.120Z,13.30
2018-06-05T11:37:59.116Z,11.50
2018-06-05T11:38:59.106Z,16.10
2018-06-05T11:39:59.101Z,20.50
2018-06-05T11:40:59.091Z,12.50
2018-06-05T11:41:59.093Z,10.90
2018-06-05T11:42:59.078Z,12.00
2018-06-05T11:43:59.075Z,14.80
2018-06-05T11:44:59.061Z,14.30
2018-06-05T11:45:59.060Z,11.20
2018-06-05T11:46:59.083Z,11.70
2018-06-05T11:47:59.045Z,11.10
2018-06-05T11:48:59.037Z,11.60
2018-06-05T11:49:59.032Z,10.90
2018-06-05T11:50:59.024Z,12.00
2018-06-05T11:51:59.016Z,11.00
2018-06-05T11:52:59.009Z,13.00
2018-06-05T11:53:59.013Z,11.40
2018-06-05T11:54:59.000Z,11.40
2018-06-05T11:55:58.991Z,12.00
2018-06-05T11:56:58.982Z,11.80
2018-06-05T11:57:58.977Z,12.40
2018-06-05T11:58:58.971Z,13.40
2018-06-05T11:59:58.965Z,14.50
2018-06-05T12:00:58.961Z,13.50
2018-06-05T12:01:58.953Z,12.80
2018-06-05T12:02:58.943Z,11.30
2018-06-05T12:03:58.940Z,11.50
2018-06-05T12:04:58.930Z,13.20
2018-06-05T12:05:58.925Z,11.80
2018-06-05T12:06:58.917Z,13.30
2018-06-05T12:07:58.911Z,11.80
2018-06-05T12:08:58.912Z,12.00
2018-06-05T12:09:58.896Z,13.60
2018-06-05T12:10:58.890Z,11.40
2018-06-05T12:11:58.881Z,11.40
2018-06-05T12:12:58.875Z,13.80
2018-06-05T12:13:58.867Z,11.60
2018-06-05T12:14:58.861Z,11.60
2018-06-05T12:15:58.859Z,10.50
2018-06-05T12:16:58.846Z,11.90
2018-06-05T12:17:58.840Z,12.00
2018-06-05T12:18:58.832Z,11.70
2018-06-05T12:19:58.827Z,9.50
2018-06-05T12:20:58.821Z,9.50
2018-06-05T12:21:58.810Z,12.40
2018-06-05T12:22:58.806Z,9.80
2018-06-05T12:23:58.799Z,11.90
2018-06-05T12:24:58.790Z,9.60
2018-06-05T12:25:58.786Z,9.20
2018-06-05T12:26:58.774Z,12.60
2018-06-05T12:27:58.770Z,12.30
2018-06-05T12:28:58.763Z,11.80
2018-06-05T12:29:58.757Z,11.20
2018-06-05T12:30:58.801Z,8.60
2018-06-05T12:31:58.744Z,9.40
2018-06-05T12:32:58.736Z,8.00
2018-06-05T12:33:58.728Z,11.00
2018-06-05T12:34:58.723Z,9.80
2018-06-05T12:35:58.719Z,7.90
2018-06-05T12:36:58.723Z,9.10
2018-06-05T12:37:58.702Z,8.70
2018-06-05T12:38:58.697Z,10.10
2018-06-05T12:39:58.694Z,9.90
2018-06-05T12:40:58.683Z,8.00
2018-06-05T12:41:58.675Z,11.20
2018-06-05T12:42:58.669Z,7.60
2018-06-05T12:43:58.662Z,9.00
2018-06-05T12:44:58.662Z,8.50
2018-06-05T12:45:58.648Z,9.50
2018-06-05T12:46:58.640Z,7.70
2018-06-05T12:47:58.639Z,7.20
2018-06-05T12:48:58.635Z,9.90
2018-06-05T12:49:58.622Z,9.70
2018-06-05T12:50:58.616Z,10.50
2018-06-05T12:51:58.611Z,8.10
2018-06-05T12:52:58.599Z,6.70